createdAt,value
2023-10-26T00:01:43.817Z,1.60
2023-10-26T00:04:12.382Z,1.10
2023-10-26T00:06:41.092Z,1.30
2023-10-26T00:09:09.502Z,1.00
2023-10-26T00:11:38.450Z,1.30
2023-10-26T00:14:07.599Z,1.50
2023-10-26T00:16:36.026Z,1.00
2023-10-26T00:19:05.173Z,1.10
2023-10-26T00:21:34.141Z,1.10
2023-10-26T00:24:02.738Z,1.30
2023-10-26T00:26:31.277Z,1.10
2023-10-26T00:28:59.962Z,1.20
2023-10-26T00:31:28.492Z,1.00
2023-10-26T00:33:57.044Z,1.00
2023-10-26T00:36:25.510Z,1.10
2023-10-26T00:38:54.200Z,1.20
2023-10-26T00:41:22.869Z,1.20
2023-10-26T00:43:51.448Z,1.30
2023-10-26T00:46:19.937Z,1.10
2023-10-26T00:48:48.454Z,1.60
2023-10-26T00:51:16.993Z,1.50
2023-10-26T00:53:45.483Z,1.10
2023-10-26T00:56:15.534Z,1.70
2023-10-26T00:58:44.686Z,1.20
2023-10-26T01:01:13.058Z,1.30
2023-10-26T01:03:43.563Z,1.90
2023-10-26T01:06:11.954Z,1.50
2023-10-26T01:08:41.480Z,1.30
2023-10-26T01:11:10.267Z,1.70
2023-10-26T01:13:38.755Z,1.50
2023-10-26T01:16:08.369Z,1.70
2023-10-26T01:18:36.832Z,1.60
2023-10-26T01:21:06.162Z,1.70
2023-10-26T01:23:34.514Z,1.70
2023-10-26T01:26:03.098Z,1.60
2023-10-26T01:28:31.578Z,1.80
2023-10-26T01:31:00.574Z,1.50
2023-10-26T01:33:29.265Z,1.70
2023-10-26T01:35:57.905Z,1.80
2023-10-26T01:38:26.525Z,1.60
2023-10-26T01:40:54.960Z,1.40
2023-10-26T01:43:26.053Z,2.00
2023-10-26T01:46:14.702Z,1.60
2023-10-26T01:48:43.356Z,2.00
2023-10-26T01:51:12.488Z,1.70
2023-10-26T01:53:42.254Z,1.90
2023-10-26T01:56:10.775Z,2.20
2023-10-26T01:58:39.260Z,2.20
2023-10-26T02:01:07.659Z,2.30
2023-10-26T02:03:36.374Z,2.00
2023-10-26T02:06:05.618Z,2.20
2023-10-26T02:08:34.814Z,2.40
2023-10-26T02:11:03.614Z,2.20
2023-10-26T02:13:32.098Z,2.00
2023-10-26T02:16:03.016Z,1.90
2023-10-26T02:18:31.833Z,2.10
2023-10-26T02:21:02.112Z,2.10
2023-10-26T02:23:30.715Z,2.30
2023-10-26T02:25:59.093Z,2.10
2023-10-26T02:28:27.471Z,2.10
2023-10-26T02:30:55.956Z,2.50
2023-10-26T02:33:24.330Z,2.20
2023-10-26T02:35:53.178Z,2.60
2023-10-26T02:38:21.597Z,2.30
2023-10-26T02:40:49.987Z,2.20
2023-10-26T02:43:19.069Z,2.50
2023-10-26T02:45:47.663Z,3.00
2023-10-26T02:48:17.487Z,3.20
2023-10-26T02:50:45.958Z,2.50
2023-10-26T02:53:14.334Z,3.30
2023-10-26T02:55:44.233Z,2.70
2023-10-26T02:58:14.870Z,2.40
2023-10-26T03:00:43.252Z,2.60
2023-10-26T03:03:11.710Z,2.40
2023-10-26T03:05:40.416Z,3.80
2023-10-26T03:08:09.975Z,3.80
2023-10-26T03:10:38.508Z,2.20
2023-10-26T03:13:06.885Z,2.40
2023-10-26T03:15:35.465Z,2.40
2023-10-26T03:18:04.009Z,2.00
2023-10-26T03:20:33.356Z,2.00
2023-10-26T03:23:01.839Z,2.00
2023-10-26T03:25:30.425Z,2.50
2023-10-26T03:28:00.542Z,2.20
2023-10-26T03:30:29.643Z,2.30
2023-10-26T03:32:58.220Z,2.00
2023-10-26T03:35:26.914Z,1.90
2023-10-26T03:37:55.528Z,2.20
2023-10-26T03:40:23.869Z,2.40
2023-10-26T03:42:52.452Z,2.30
2023-10-26T03:45:20.996Z,2.30
2023-10-26T03:47:49.534Z,1.80
2023-10-26T03:50:18.202Z,2.30
2023-10-26T03:52:47.401Z,4.50
2023-10-26T03:55:15.974Z,3.60
2023-10-26T03:57:46.095Z,3.40
2023-10-26T04:00:15.583Z,3.20
2023-10-26T04:02:44.031Z,3.10
2023-10-26T04:05:12.766Z,3.20
2023-10-26T04:07:41.460Z,2.60
2023-10-26T04:10:10.542Z,4.90
2023-10-26T04:12:38.959Z,5.30
2023-10-26T04:15:08.252Z,3.00
2023-10-26T04:17:36.763Z,3.20
2023-10-26T04:20:06.300Z,3.80
2023-10-26T04:22:34.887Z,6.00
2023-10-26T04:25:03.879Z,6.10
2023-10-26T04:27:33.997Z,4.00
2023-10-26T04:30:02.737Z,4.00
2023-10-26T04:32:31.202Z,3.60
2023-10-26T04:35:01.188Z,4.30
2023-10-26T04:37:29.677Z,6.10
2023-10-26T04:39:58.973Z,5.30
2023-10-26T04:42:28.178Z,5.90
2023-10-26T04:44:56.891Z,8.80
2023-10-26T04:47:25.395Z,8.70
2023-10-26T04:49:53.825Z,7.10
2023-10-26T04:52:22.196Z,7.10
2023-10-26T04:54:50.582Z,5.80
2023-10-26T04:57:19.091Z,7.20
2023-10-26T04:59:47.540Z,6.50
2023-10-26T05:02:15.913Z,6.10
2023-10-26T05:04:44.842Z,6.60
2023-10-26T05:07:13.587Z,4.50
2023-10-26T05:09:41.899Z,5.50
2023-10-26T05:12:10.318Z,7.00
2023-10-26T05:14:38.712Z,7.40
2023-10-26T05:17:07.101Z,5.80
2023-10-26T05:19:35.572Z,6.00
2023-10-26T05:22:05.195Z,7.70
2023-10-26T05:24:34.294Z,13.10
2023-10-26T05:27:02.920Z,13.50
2023-10-26T05:29:31.586Z,11.20
2023-10-26T05:32:02.827Z,7.90
2023-10-26T05:34:31.898Z,7.80
2023-10-26T05:37:00.360Z,8.40
2023-10-26T05:39:28.873Z,8.40
2023-10-26T05:41:57.650Z,8.00
2023-10-26T05:44:26.721Z,9.70
2023-10-26T05:46:55.163Z,8.50
2023-10-26T05:49:23.779Z,6.50
2023-10-26T05:51:52.564Z,5.60
2023-10-26T05:54:21.767Z,6.20
2023-10-26T05:56:50.651Z,6.00
2023-10-26T05:59:19.346Z,6.20
2023-10-26T06:01:47.848Z,7.40
2023-10-26T06:04:16.303Z,6.90
2023-10-26T06:06:44.779Z,7.40
2023-10-26T06:09:14.028Z,6.60
2023-10-26T06:11:45.217Z,7.10
2023-10-26T06:14:13.904Z,7.60
2023-10-26T06:16:42.637Z,6.80
2023-10-26T06:19:12.719Z,7.10
2023-10-26T06:21:41.394Z,6.70
2023-10-26T06:24:10.111Z,6.60
2023-10-26T06:26:38.664Z,6.30
2023-10-26T06:29:07.347Z,6.10
2023-10-26T06:31:37.184Z,6.10
2023-10-26T06:34:05.639Z,5.60
2023-10-26T06:36:34.752Z,6.20
2023-10-26T06:39:03.889Z,6.00
2023-10-26T06:41:32.620Z,5.60
2023-10-26T06:44:01.306Z,5.60
2023-10-26T06:46:39.762Z,5.50
2023-10-26T06:49:18.888Z,4.80
2023-10-26T06:51:55.520Z,4.90
2023-10-26T06:54:24.660Z,4.90
2023-10-26T06:56:53.300Z,5.30
2023-10-26T06:59:21.780Z,4.80
2023-10-26T07:02:09.574Z,5.00
2023-10-26T07:04:47.738Z,5.20
2023-10-26T07:07:16.716Z,5.80
2023-10-26T07:09:45.403Z,5.70
2023-10-26T07:12:14.032Z,6.70
2023-10-26T07:14:43.017Z,6.90
2023-10-26T07:17:11.666Z,6.60
2023-10-26T07:19:40.193Z,6.40
2023-10-26T07:22:08.730Z,6.90
2023-10-26T07:24:37.339Z,6.70
2023-10-26T07:27:06.360Z,7.50
2023-10-26T07:29:35.111Z,6.80
2023-10-26T07:32:03.898Z,5.90
2023-10-26T07:34:32.458Z,6.40
2023-10-26T07:37:00.945Z,6.30
2023-10-26T07:39:45.493Z,5.90
2023-10-26T07:42:16.168Z,5.30
2023-10-26T07:44:46.385Z,6.30
2023-10-26T07:47:15.553Z,5.80
2023-10-26T07:49:44.133Z,6.20
2023-10-26T07:52:12.822Z,6.30
2023-10-26T07:54:41.461Z,5.60
2023-10-26T07:57:10.099Z,6.20
2023-10-26T07:59:38.466Z,6.20
2023-10-26T08:02:07.660Z,6.50
2023-10-26T08:04:36.305Z,5.60
2023-10-26T08:07:05.136Z,5.90
2023-10-26T08:09:33.630Z,4.90
2023-10-26T08:12:02.712Z,5.70
2023-10-26T08:16:04.829Z,5.10
2023-10-26T08:17:20.483Z,5.00
2023-10-26T08:19:54.180Z,6.00
2023-10-26T08:22:23.217Z,5.30
2023-10-26T08:24:51.843Z,5.40
2023-10-26T08:27:20.421Z,4.70
2023-10-26T08:29:49.005Z,5.30
2023-10-26T08:32:17.699Z,4.50
2023-10-26T08:34:47.502Z,5.00
2023-10-26T08:37:17.080Z,6.70
2023-10-26T08:39:45.892Z,5.60
2023-10-26T08:42:16.795Z,5.80
2023-10-26T08:44:46.151Z,3.90
2023-10-26T08:47:19.955Z,0.50
2023-10-26T08:50:08.190Z,0.60
2023-10-26T08:52:42.795Z,0.60
2023-10-26T08:55:11.799Z,0.50
2023-10-26T08:57:55.643Z,0.50
2023-10-26T09:00:24.642Z,0.30
2023-10-26T09:02:56.218Z,0.30
2023-10-26T09:05:25.089Z,0.30
2023-10-26T09:08:20.799Z,0.40
2023-10-26T09:10:49.494Z,0.50
2023-10-26T09:13:28.778Z,0.30
2023-10-26T09:15:59.922Z,0.40
2023-10-26T09:18:29.380Z,0.40
2023-10-26T09:21:04.598Z,0.30
2023-10-26T09:23:35.762Z,0.40
2023-10-26T09:26:08.996Z,0.40
2023-10-26T09:28:55.365Z,0.30
2023-10-26T09:31:25.443Z,0.40
2023-10-26T09:33:54.345Z,0.50
2023-10-26T09:36:23.037Z,0.30
2023-10-26T09:38:52.026Z,0.40
2023-10-26T09:41:21.524Z,0.40
2023-10-26T09:43:50.388Z,0.60
2023-10-26T09:46:20.967Z,0.40
2023-10-26T09:48:53.508Z,0.40
2023-10-26T09:51:22.617Z,0.70
2023-10-26T09:53:52.833Z,0.30
2023-10-26T09:56:27.194Z,0.30
2023-10-26T09:58:56.764Z,0.40
2023-10-26T10:01:39.389Z,0.50
2023-10-26T10:07:02.366Z,0.50
2023-10-26T10:09:32.191Z,0.40
2023-10-26T10:12:07.259Z,0.50
2023-10-26T10:15:29.137Z,0.50
2023-10-26T10:17:53.629Z,0.50
2023-10-26T10:20:22.533Z,0.50
2023-10-26T10:22:53.693Z,0.50
2023-10-26T10:25:24.631Z,0.50
2023-10-26T10:27:53.727Z,0.50
2023-10-26T10:30:28.810Z,0.60
2023-10-26T10:33:02.899Z,1.20
2023-10-26T10:35:52.512Z,2.60
2023-10-26T10:38:22.282Z,1.20
2023-10-26T10:41:00.317Z,1.70
2023-10-26T10:43:47.295Z,1.80
2023-10-26T10:46:21.436Z,1.70
2023-10-26T10:49:01.288Z,1.10
2023-10-26T10:51:46.038Z,1.10
2023-10-26T10:56:51.771Z,1.90
2023-10-26T10:59:26.976Z,1.80
2023-10-26T11:02:11.707Z,1.30
2023-10-26T11:05:09.053Z,1.20
2023-10-26T11:07:53.716Z,0.80
2023-10-26T11:10:31.333Z,0.70
2023-10-26T11:13:11.377Z,1.00
2023-10-26T11:15:51.657Z,1.10
2023-10-26T11:18:30.817Z,1.50
2023-10-26T11:21:21.984Z,0.80
2023-10-26T11:24:20.275Z,1.80
2023-10-26T11:27:11.069Z,0.90
2023-10-26T11:30:06.695Z,0.80
2023-10-26T11:32:36.154Z,0.80
2023-10-26T11:35:15.015Z,0.80
2023-10-26T11:37:49.664Z,0.80
2023-10-26T11:40:18.235Z,0.80
2023-10-26T11:43:01.364Z,0.60
2023-10-26T11:45:50.657Z,1.10
2023-10-26T11:48:30.490Z,1.70
2023-10-26T11:50:59.760Z,1.70
2023-10-26T11:53:28.354Z,1.20
2023-10-26T11:55:56.840Z,0.80
2023-10-26T11:58:28.174Z,0.90
2023-10-26T12:00:56.841Z,1.00
2023-10-26T12:03:27.850Z,0.80
2023-10-26T12:05:59.143Z,0.80
2023-10-26T12:08:30.183Z,0.70
2023-10-26T12:10:58.772Z,0.80
2023-10-26T12:13:27.609Z,1.10
2023-10-26T12:15:56.886Z,0.80
2023-10-26T12:18:26.615Z,1.00
2023-10-26T12:20:55.391Z,0.60
2023-10-26T12:23:24.037Z,1.00
2023-10-26T12:25:55.696Z,2.00
2023-10-26T12:28:25.593Z,2.40
2023-10-26T12:30:55.159Z,2.10
2023-10-26T12:33:24.013Z,1.60
2023-10-26T12:35:52.591Z,1.60
2023-10-26T12:38:21.168Z,2.00
2023-10-26T12:40:50.058Z,2.00
2023-10-26T12:43:21.608Z,1.50
2023-10-26T12:45:50.326Z,1.90
2023-10-26T12:48:18.985Z,1.60
2023-10-26T12:50:48.489Z,1.40
2023-10-26T12:53:19.327Z,1.50
2023-10-26T12:55:48.012Z,1.60
2023-10-26T12:58:16.899Z,1.50
2023-10-26T13:00:46.703Z,1.80
2023-10-26T13:03:15.496Z,2.00
2023-10-26T13:05:44.288Z,2.70
2023-10-26T13:08:13.174Z,2.00
2023-10-26T13:10:52.838Z,2.20
2023-10-26T13:13:21.911Z,2.10
2023-10-26T13:15:50.547Z,3.10
2023-10-26T13:18:29.166Z,3.80
2023-10-26T13:21:00.566Z,3.50
2023-10-26T13:23:41.742Z,2.80
2023-10-26T13:26:47.506Z,3.30
2023-10-26T13:29:23.768Z,10.00
2023-10-26T13:32:22.294Z,17.90
2023-10-26T13:34:51.143Z,12.80
2023-10-26T13:37:20.582Z,7.20
2023-10-26T13:39:49.359Z,8.70
2023-10-26T13:42:20.471Z,8.10
2023-10-26T13:44:58.376Z,5.00
2023-10-26T13:47:27.645Z,3.30
2023-10-26T13:49:56.460Z,5.90
2023-10-26T13:52:26.374Z,4.20
2023-10-26T13:54:54.984Z,3.10
2023-10-26T13:57:25.385Z,3.10
2023-10-26T13:59:54.273Z,2.80
2023-10-26T14:02:25.184Z,2.70
2023-10-26T14:04:53.794Z,3.30
2023-10-26T14:07:22.274Z,2.10
2023-10-26T14:09:52.407Z,2.80
2023-10-26T14:12:21.703Z,3.80
2023-10-26T14:14:50.592Z,11.80
2023-10-26T14:17:28.751Z,13.90
2023-10-26T14:19:57.172Z,7.20
2023-10-26T14:22:25.648Z,4.80
2023-10-26T14:24:54.159Z,4.90
2023-10-26T14:27:25.820Z,6.80
2023-10-26T14:29:54.473Z,5.70
2023-10-26T14:32:23.376Z,5.30
2023-10-26T14:34:51.751Z,5.80
2023-10-26T14:37:20.428Z,2.70
2023-10-26T14:39:48.824Z,1.80
2023-10-26T14:42:17.179Z,2.60
2023-10-26T14:44:45.986Z,17.40
2023-10-26T14:47:14.761Z,13.50
2023-10-26T14:49:46.941Z,11.50
2023-10-26T14:52:15.406Z,5.20
2023-10-26T14:54:43.896Z,3.40
2023-10-26T14:57:12.576Z,2.50
2023-10-26T14:59:41.373Z,7.60
2023-10-26T15:02:09.950Z,9.30
2023-10-26T15:04:47.276Z,3.90
2023-10-26T15:07:15.716Z,4.50
2023-10-26T15:10:20.061Z,2.20
2023-10-26T15:12:55.633Z,3.30
2023-10-26T15:15:25.186Z,2.30
2023-10-26T15:17:54.121Z,2.00
2023-10-26T15:20:22.568Z,18.90
2023-10-26T15:22:51.143Z,9.20
2023-10-26T15:25:20.243Z,7.80
2023-10-26T15:27:48.737Z,5.40
2023-10-26T15:30:17.521Z,4.00
2023-10-26T15:32:46.137Z,3.60
2023-10-26T15:35:14.844Z,11.20
2023-10-26T15:37:43.370Z,11.70
2023-10-26T15:40:13.152Z,6.00
2023-10-26T15:42:41.789Z,6.60
2023-10-26T15:45:12.793Z,6.20
2023-10-26T15:47:41.907Z,7.60
2023-10-26T15:50:11.345Z,10.10
2023-10-26T15:52:39.895Z,11.50
2023-10-26T15:55:10.133Z,10.90
2023-10-26T15:57:38.609Z,10.70
2023-10-26T16:00:10.907Z,9.80
2023-10-26T16:02:39.532Z,8.10
2023-10-26T16:05:08.963Z,6.30
2023-10-26T16:07:37.991Z,5.20
2023-10-26T16:10:07.397Z,6.60
2023-10-26T16:12:35.922Z,8.90
2023-10-26T16:15:11.900Z,12.30
2023-10-26T16:18:06.591Z,7.30
2023-10-26T16:20:37.730Z,4.70
2023-10-26T16:23:15.255Z,6.60
2023-10-26T16:25:59.481Z,5.20
2023-10-26T16:28:47.083Z,5.50
2023-10-26T16:31:26.314Z,7.60
2023-10-26T16:34:00.768Z,20.00
2023-10-26T16:36:29.538Z,8.40
2023-10-26T16:38:58.115Z,11.20
2023-10-26T16:41:26.696Z,9.20
2023-10-26T16:44:15.657Z,7.70
2023-10-26T16:46:56.964Z,9.40
2023-10-26T16:49:26.668Z,9.90
2023-10-26T16:51:55.623Z,12.00
2023-10-26T16:54:24.831Z,7.00
2023-10-26T16:56:54.433Z,6.60
2023-10-26T16:59:23.018Z,5.90
2023-10-26T17:01:54.408Z,10.50
2023-10-26T17:04:23.051Z,12.00
2023-10-26T17:06:53.368Z,10.50
2023-10-26T17:09:23.396Z,12.80
2023-10-26T17:11:51.978Z,10.70
2023-10-26T17:14:20.556Z,8.90
2023-10-26T17:16:49.500Z,7.10
2023-10-26T17:19:18.031Z,7.60
2023-10-26T17:21:46.842Z,6.50
2023-10-26T17:24:18.571Z,6.00
2023-10-26T17:26:47.259Z,10.00
2023-10-26T17:29:18.609Z,7.90
2023-10-26T17:31:47.166Z,8.60
2023-10-26T17:34:16.589Z,10.50
2023-10-26T17:36:48.159Z,9.40
2023-10-26T17:39:16.832Z,9.30
2023-10-26T17:41:46.659Z,8.70
2023-10-26T17:44:15.327Z,7.90
2023-10-26T17:46:44.095Z,7.20
2023-10-26T17:49:12.636Z,6.20
2023-10-26T17:51:41.284Z,6.40
2023-10-26T17:54:13.656Z,6.50
2023-10-26T17:56:42.140Z,3.50
2023-10-26T17:59:10.628Z,2.20
2023-10-26T18:01:39.918Z,1.70
2023-10-26T18:04:08.340Z,4.80
2023-10-26T18:06:45.853Z,3.10
2023-10-26T18:09:17.257Z,5.90
2023-10-26T18:11:46.039Z,6.40
2023-10-26T18:14:14.518Z,5.80
2023-10-26T18:16:43.020Z,5.50
2023-10-26T18:19:11.420Z,3.10
2023-10-26T18:21:39.779Z,2.60
2023-10-26T18:24:08.903Z,2.10
2023-10-26T18:26:37.232Z,3.30
2023-10-26T18:29:06.352Z,2.40
2023-10-26T18:31:34.937Z,2.60
2023-10-26T18:34:04.775Z,1.90
2023-10-26T18:36:35.648Z,16.00
2023-10-26T18:39:04.746Z,5.70
2023-10-26T18:41:33.558Z,1.50
2023-10-26T18:44:02.212Z,1.50
2023-10-26T18:46:30.898Z,1.30
2023-10-26T18:48:59.438Z,1.40
2023-10-26T18:51:27.746Z,1.40
2023-10-26T18:53:57.158Z,1.40
2023-10-26T18:56:25.524Z,1.10
2023-10-26T18:58:54.519Z,1.20
2023-10-26T19:01:25.395Z,0.60
2023-10-26T19:06:27.034Z,0.90
2023-10-26T19:08:55.516Z,1.30
2023-10-26T19:11:24.213Z,1.10
2023-10-26T19:13:53.113Z,0.80
2023-10-26T19:16:21.747Z,0.80
2023-10-26T19:18:50.628Z,0.80
2023-10-26T19:21:19.266Z,1.00
2023-10-26T19:23:47.742Z,1.00
2023-10-26T19:26:16.539Z,1.00
2023-10-26T19:28:45.009Z,0.90
2023-10-26T19:31:13.750Z,0.90
2023-10-26T19:33:43.798Z,0.60
2023-10-26T19:36:12.398Z,1.00
2023-10-26T19:38:40.883Z,0.70
2023-10-26T19:41:16.460Z,0.80
2023-10-26T19:44:06.328Z,0.60
2023-10-26T19:46:42.963Z,0.50
2023-10-26T19:49:23.362Z,0.60
2023-10-26T19:51:52.569Z,0.70
2023-10-26T19:54:27.462Z,0.50
2023-10-26T19:56:56.350Z,0.50
2023-10-26T19:59:24.873Z,0.60
2023-10-26T20:01:53.477Z,0.50
2023-10-26T20:04:26.700Z,0.50
2023-10-26T20:06:55.725Z,0.40
2023-10-26T20:09:44.815Z,0.50
2023-10-26T20:12:18.459Z,0.60
2023-10-26T20:14:55.721Z,0.70
2023-10-26T20:17:33.908Z,0.70
2023-10-26T20:20:02.645Z,0.70
2023-10-26T20:22:31.320Z,0.70
2023-10-26T20:24:59.829Z,0.60
2023-10-26T20:27:28.491Z,0.70
2023-10-26T20:29:57.047Z,0.80
2023-10-26T20:32:25.663Z,0.70
2023-10-26T20:34:54.249Z,0.80
2023-10-26T20:37:22.872Z,0.70
2023-10-26T20:39:51.519Z,0.80
2023-10-26T20:42:20.298Z,0.70
2023-10-26T20:44:48.880Z,0.60
2023-10-26T20:47:17.261Z,0.70
2023-10-26T20:49:46.580Z,0.90
2023-10-26T20:52:15.357Z,0.60
2023-10-26T20:54:43.983Z,0.60
2023-10-26T20:57:12.818Z,0.70
2023-10-26T20:59:42.729Z,0.70
2023-10-26T21:02:12.974Z,0.60
2023-10-26T21:04:41.752Z,0.70
2023-10-26T21:07:28.978Z,0.60
2023-10-26T21:12:57.158Z,0.80
2023-10-26T21:15:26.371Z,0.80
2023-10-26T21:17:54.917Z,0.60
2023-10-26T21:20:27.027Z,0.70
2023-10-26T21:22:55.808Z,0.70
2023-10-26T21:25:35.553Z,0.70
2023-10-26T21:28:06.854Z,0.90
2023-10-26T21:30:38.506Z,1.10
2023-10-26T21:33:07.245Z,0.90
2023-10-26T21:35:39.988Z,0.70
2023-10-26T21:38:08.514Z,0.80
2023-10-26T21:40:41.495Z,0.60
2023-10-26T21:43:10.083Z,0.80
2023-10-26T21:45:38.967Z,0.60
2023-10-26T21:48:07.494Z,0.80
2023-10-26T21:50:36.033Z,0.70
2023-10-26T21:53:07.067Z,0.60
2023-10-26T21:55:40.681Z,0.70
2023-10-26T21:58:11.606Z,0.60
2023-10-26T22:00:39.977Z,0.60
2023-10-26T22:03:09.083Z,0.50
2023-10-26T22:05:37.769Z,0.50
2023-10-26T22:08:08.915Z,0.40
2023-10-26T22:10:37.453Z,0.50
2023-10-26T22:13:06.720Z,0.60
2023-10-26T22:15:35.473Z,0.70
2023-10-26T22:18:04.427Z,0.70
2023-10-26T22:20:33.281Z,0.70
2023-10-26T22:23:01.736Z,0.50
2023-10-26T22:25:30.212Z,0.60
2023-10-26T22:27:59.034Z,0.70
2023-10-26T22:30:28.210Z,0.70
2023-10-26T22:32:56.758Z,0.70
2023-10-26T22:35:25.464Z,0.70
2023-10-26T22:37:53.844Z,0.70
2023-10-26T22:40:22.624Z,0.60
2023-10-26T22:42:51.132Z,0.80
2023-10-26T22:45:19.949Z,0.70
2023-10-26T22:47:53.117Z,0.70
2023-10-26T22:50:35.497Z,0.70
2023-10-26T22:53:03.977Z,0.60
2023-10-26T22:55:36.352Z,0.60
2023-10-26T22:58:05.162Z,0.60
2023-10-26T23:00:35.869Z,0.50
2023-10-26T23:03:05.103Z,0.70
2023-10-26T23:05:34.895Z,0.70
2023-10-26T23:08:03.467Z,0.50
2023-10-26T23:10:31.840Z,0.50
2023-10-26T23:13:00.241Z,0.50
2023-10-26T23:15:28.903Z,0.60
2023-10-26T23:17:57.374Z,0.70
2023-10-26T23:20:26.284Z,0.60
2023-10-26T23:22:54.659Z,0.50
2023-10-26T23:25:24.720Z,1.10
2023-10-26T23:27:53.215Z,1.10
2023-10-26T23:30:22.161Z,0.90
2023-10-26T23:32:52.280Z,0.70
2023-10-26T23:35:20.852Z,0.60
2023-10-26T23:37:49.335Z,0.40
2023-10-26T23:40:17.685Z,0.30
2023-10-26T23:42:55.477Z,0.30
2023-10-26T23:45:24.007Z,0.30
2023-10-26T23:47:52.401Z,0.40
2023-10-26T23:50:20.754Z,0.30
2023-10-26T23:52:49.265Z,0.20
2023-10-26T23:55:17.647Z,0.30
2023-10-26T23:57:48.277Z,0.30
